TPOK1: Kansas River, State-Line, KS

                                SHEF ID:       TPOK1     MARAIS DES CYGNES R NR KS-MO ST
STATION TYPE:

STAGE STAGE(2) RIV-FLOW BAT-LOAD
ft ft cfs volt
Ccp-Rev Ccp-Rev Ccp-Rev Ccp-Rev
(America/Chicago)
08/09 00:00 4.57 4.46 327 12.48
08/09 01:00 4.57 4.46 327 12.46
08/09 02:00 4.56 4.46 323 12.44
08/09 03:00 4.58 4.46 330 12.44
08/09 04:00 4.60 4.48 337 12.41
08/09 05:00 4.61 4.51 340 12.41
08/09 06:00 4.64 4.53 350 12.38
08/09 07:00 4.66 4.56 357 12.40
08/09 08:00 4.69 4.60 367 12.43
08/09 09:00 4.74 4.64 384 12.70
08/09 10:00 4.78 4.67 399 12.97
08/09 11:00 4.83 4.73 417 13.01
08/09 12:00 4.88 4.78 436 12.97
08/09 13:00 4.93 4.82 455 13.29
08/09 14:00 4.97 4.87 470 13.26
08/09 15:00 5.03 4.93 494 13.04
08/09 16:00 5.08 5.00 515 12.99
08/09 17:00 5.14 5.05 540 12.89
08/09 18:00 5.19 5.09 561 12.77
08/09 19:00 5.24 5.16 583 12.66
08/09 20:00 5.30 5.20 610 12.59
08/09 21:00 5.36 5.27 637 12.54
08/09 22:00 5.43 5.31 670 12.54
08/09 23:00 5.47 5.39 689 12.53
Data processed at Mon 10Aug2026 04:52 GMT

NOTICE: If you are parsing this page

Please convert to using our Data API. Starting early 2026 we will be migrating to: https://water.usace.army.mil with modern pages rendered in JavaScript. When this migration completes you will no longer be able to scrape this page! CWMSDataAPI (CDA)

Timeseries IDs (TSIDs)

TSIDs used from left to right in the data table
MKSL.Stage.Inst.1Hour.0.Ccp-Rev
MKSL.Stage-Alt.Inst.1Hour.0.Ccp-Rev
MKSL.Flow.Inst.1Hour.0.Ccp-Rev
MKSL.Volt-Battery Load.Inst.1Hour.0.Ccp-Rev

                            

All information presented herein is the property of the government of the United States of America and may be revised or deleted at any time without prior notice. Dissemination of this information without the expressed written consent of the Public Affairs Office, Tulsa District U.S. Army Corps of Engineers is strictly prohibited. These data are gathered electronically and, as presented, have NOT undergone any form of quality control. These data are NOT guaranteed to be valid or correct.